createdAt,value
2022-12-23T00:01:13.294Z,12.91
2022-12-23T00:03:39.947Z,12.93
2022-12-23T00:06:14.432Z,12.94
2022-12-23T00:08:41.667Z,12.93
2022-12-23T00:11:12.975Z,12.91
2022-12-23T00:13:57.998Z,12.90
2022-12-23T00:16:24.542Z,12.86
2022-12-23T00:18:51.157Z,12.82
2022-12-23T00:21:17.908Z,12.78
2022-12-23T00:23:46.910Z,12.74
2022-12-23T00:26:24.731Z,12.68
2022-12-23T00:28:51.314Z,12.64
2022-12-23T00:31:18.865Z,12.61
2022-12-23T00:33:47.387Z,12.60
2022-12-23T00:36:19.907Z,12.61
2022-12-23T00:39:05.096Z,12.63
2022-12-23T00:41:50.101Z,12.66
2022-12-23T00:44:16.750Z,12.67
2022-12-23T00:46:43.277Z,12.66
2022-12-23T00:49:31.763Z,12.64
2022-12-23T00:51:58.700Z,12.64
2022-12-23T00:54:25.310Z,12.66
2022-12-23T00:56:51.890Z,12.67
2022-12-23T00:59:18.459Z,12.70
2022-12-23T01:02:03.586Z,12.70
2022-12-23T01:04:48.828Z,12.66
2022-12-23T01:07:15.434Z,12.61
2022-12-23T01:09:42.003Z,12.61
2022-12-23T01:12:08.526Z,12.60
2022-12-23T01:14:35.807Z,12.59
2022-12-23T01:17:02.646Z,12.58
2022-12-23T01:19:29.504Z,12.59
2022-12-23T01:21:56.072Z,12.59
2022-12-23T01:24:22.961Z,12.58
2022-12-23T01:26:49.505Z,12.59
2022-12-23T01:29:16.023Z,12.60
2022-12-23T01:31:42.576Z,12.50
2022-12-23T01:34:10.435Z,12.46
2022-12-23T01:36:37.470Z,12.45
2022-12-23T01:39:04.368Z,12.48
2022-12-23T01:41:50.554Z,12.50
2022-12-23T01:44:50.828Z,12.50
2022-12-23T01:47:44.333Z,12.51
2022-12-23T01:50:29.209Z,12.53
2022-12-23T01:53:18.405Z,12.53
2022-12-23T01:55:54.689Z,12.52
2022-12-23T01:58:26.233Z,12.50
2022-12-23T02:01:12.767Z,12.48
2022-12-23T02:03:42.412Z,12.52
2022-12-23T02:06:40.715Z,12.53
2022-12-23T02:09:18.323Z,12.54
2022-12-23T02:12:12.817Z,12.56
2022-12-23T02:15:16.713Z,12.57
2022-12-23T02:18:02.020Z,12.57
2022-12-23T02:20:53.225Z,12.59
2022-12-23T02:23:53.673Z,12.60
2022-12-23T02:26:29.362Z,12.61
2022-12-23T02:29:17.588Z,12.61
2022-12-23T02:31:50.176Z,12.60
2022-12-23T02:34:20.357Z,12.61
2022-12-23T02:36:52.888Z,12.56
2022-12-23T02:39:47.733Z,12.56
2022-12-23T02:42:31.191Z,12.57
2022-12-23T02:45:06.639Z,12.56
2022-12-23T02:47:40.726Z,12.55
2022-12-23T02:50:34.472Z,12.54
2022-12-23T02:53:17.750Z,12.51
2022-12-23T02:55:45.280Z,12.49
2022-12-23T02:58:13.472Z,12.45
2022-12-23T03:00:41.699Z,12.42
2022-12-23T03:03:08.378Z,12.40
2022-12-23T03:05:41.558Z,12.38
2022-12-23T03:08:14.931Z,12.33
2022-12-23T03:11:09.889Z,12.29
2022-12-23T03:14:02.495Z,12.27
2022-12-23T03:16:39.781Z,12.29
2022-12-23T03:19:23.417Z,12.30
2022-12-23T03:22:31.366Z,12.33
2022-12-23T03:25:23.713Z,12.35
2022-12-23T03:27:57.937Z,12.38
2022-12-23T03:30:24.625Z,12.38
2022-12-23T03:33:01.044Z,12.34
2022-12-23T03:35:33.324Z,12.35
2022-12-23T03:38:01.271Z,12.35
2022-12-23T03:40:36.763Z,12.34
2022-12-23T03:43:18.589Z,12.32
2022-12-23T03:45:49.061Z,12.30
2022-12-23T03:48:20.961Z,12.33
2022-12-23T03:50:47.597Z,12.33
2022-12-23T03:53:18.839Z,12.36
2022-12-23T03:55:48.681Z,12.39
2022-12-23T03:58:31.072Z,12.39
2022-12-23T04:01:09.953Z,12.38
2022-12-23T04:03:58.088Z,12.38
2022-12-23T04:06:27.531Z,12.32
2022-12-23T04:08:54.158Z,12.34
2022-12-23T04:11:20.729Z,12.33
2022-12-23T04:13:48.398Z,12.34
2022-12-23T04:16:14.975Z,12.36
2022-12-23T04:18:41.610Z,12.36
2022-12-23T04:21:08.137Z,12.35
2022-12-23T04:23:34.715Z,12.33
2022-12-23T04:26:01.266Z,12.32
2022-12-23T04:28:27.815Z,12.29
2022-12-23T04:30:54.379Z,12.30
2022-12-23T04:33:21.385Z,12.33
2022-12-23T04:35:47.895Z,12.35
2022-12-23T04:38:14.461Z,12.36
2022-12-23T04:40:40.942Z,12.37
2022-12-23T04:43:07.561Z,12.40
2022-12-23T04:45:34.136Z,12.45
2022-12-23T04:48:00.625Z,12.46
2022-12-23T04:50:27.115Z,12.48
2022-12-23T04:52:53.565Z,12.50
2022-12-23T04:55:20.064Z,12.52
2022-12-23T04:57:46.572Z,12.52
2022-12-23T05:00:13.620Z,12.53
2022-12-23T05:02:40.304Z,12.53
2022-12-23T05:05:07.100Z,12.50
2022-12-23T05:07:33.627Z,12.50
2022-12-23T05:10:02.021Z,12.49
2022-12-23T05:12:29.959Z,12.44
2022-12-23T05:14:56.516Z,12.39
2022-12-23T05:17:23.294Z,12.33
2022-12-23T05:19:49.825Z,12.27
2022-12-23T05:22:16.338Z,12.24
2022-12-23T05:24:42.853Z,12.20
2022-12-23T05:27:09.408Z,12.14
2022-12-23T05:29:35.930Z,12.11
2022-12-23T05:32:02.449Z,12.05
2022-12-23T05:34:29.030Z,12.01
2022-12-23T05:36:55.539Z,11.98
2022-12-23T05:39:22.090Z,11.95
2022-12-23T05:41:48.639Z,11.93
2022-12-23T05:44:15.181Z,11.90
2022-12-23T05:46:41.764Z,11.88
2022-12-23T05:49:08.320Z,11.88
2022-12-23T05:51:34.791Z,11.88
2022-12-23T05:54:01.409Z,11.87
2022-12-23T05:56:27.955Z,11.78
2022-12-23T05:58:54.500Z,11.76
2022-12-23T06:01:21.023Z,11.75
2022-12-23T06:03:47.574Z,11.70
2022-12-23T06:06:14.299Z,11.57
2022-12-23T06:08:40.777Z,11.44
2022-12-23T06:11:07.345Z,11.35
2022-12-23T06:13:33.948Z,11.27
2022-12-23T06:16:00.471Z,11.24
2022-12-23T06:18:27.073Z,11.18
2022-12-23T06:20:55.145Z,11.13
2022-12-23T06:23:22.083Z,11.12
2022-12-23T06:25:48.618Z,11.08
2022-12-23T06:28:15.094Z,11.07
2022-12-23T06:30:41.608Z,11.08
2022-12-23T06:33:08.116Z,11.13
2022-12-23T06:35:34.717Z,11.13
2022-12-23T06:38:01.243Z,11.13
2022-12-23T06:40:29.349Z,11.14
2022-12-23T06:42:55.981Z,11.13
2022-12-23T06:45:22.457Z,11.14
2022-12-23T06:47:48.965Z,11.16
2022-12-23T06:50:15.462Z,11.23
2022-12-23T06:52:41.954Z,11.29
2022-12-23T06:55:08.636Z,11.35
2022-12-23T06:57:35.098Z,11.37
2022-12-23T07:00:01.797Z,11.39
2022-12-23T07:02:28.494Z,11.40
2022-12-23T07:04:55.052Z,11.36
2022-12-23T07:07:25.328Z,11.32
2022-12-23T07:09:52.217Z,11.31
2022-12-23T07:12:19.379Z,11.29
2022-12-23T07:14:45.928Z,11.28
2022-12-23T07:17:12.599Z,11.27
2022-12-23T07:19:40.341Z,11.28
2022-12-23T07:22:06.982Z,11.31
2022-12-23T07:24:34.495Z,11.34
2022-12-23T07:27:00.982Z,11.36
2022-12-23T07:29:27.457Z,11.38
2022-12-23T07:31:54.047Z,11.41
2022-12-23T07:34:20.672Z,11.45
2022-12-23T07:36:47.413Z,11.49
2022-12-23T07:39:14.220Z,11.55
2022-12-23T07:41:40.772Z,11.60
2022-12-23T07:44:08.807Z,11.62
2022-12-23T07:46:35.412Z,11.61
2022-12-23T07:49:01.978Z,11.59
2022-12-23T07:51:28.574Z,11.54
2022-12-23T07:53:55.149Z,11.51
2022-12-23T07:56:21.681Z,11.49
2022-12-23T07:58:49.437Z,11.48
2022-12-23T08:01:16.398Z,11.48
2022-12-23T08:03:43.011Z,11.54
2022-12-23T08:06:12.694Z,11.60
2022-12-23T08:08:40.645Z,11.64
2022-12-23T08:11:09.296Z,11.70
2022-12-23T08:13:37.936Z,11.75
2022-12-23T08:16:05.735Z,11.79
2022-12-23T08:18:34.572Z,11.84
2022-12-23T08:21:03.647Z,11.87
2022-12-23T08:23:30.921Z,11.90
2022-12-23T08:26:09.262Z,11.92
2022-12-23T08:28:37.001Z,11.94
2022-12-23T08:31:04.730Z,11.96
2022-12-23T08:33:31.355Z,12.00
2022-12-23T08:35:57.876Z,12.02
2022-12-23T08:38:24.369Z,12.04
2022-12-23T08:40:50.879Z,12.05
2022-12-23T08:43:17.493Z,12.05
2022-12-23T08:45:44.156Z,12.07
2022-12-23T08:48:10.659Z,12.07
2022-12-23T08:50:44.085Z,12.07
2022-12-23T08:53:11.613Z,12.11
2022-12-23T08:55:39.819Z,12.17
2022-12-23T08:58:06.928Z,12.23
2022-12-23T09:00:33.431Z,12.24
2022-12-23T09:03:00.026Z,12.27
2022-12-23T09:05:26.721Z,12.32
2022-12-23T09:07:53.618Z,12.41
2022-12-23T09:10:20.269Z,12.50
2022-12-23T09:12:47.337Z,12.62
2022-12-23T09:15:14.359Z,12.71
2022-12-23T09:17:43.672Z,12.76
2022-12-23T09:20:10.953Z,12.83
2022-12-23T09:22:37.494Z,12.91
2022-12-23T09:25:05.450Z,12.98
2022-12-23T09:27:32.205Z,13.06
2022-12-23T09:29:58.687Z,13.16
2022-12-23T09:32:25.251Z,13.23
2022-12-23T09:34:51.765Z,13.26
2022-12-23T09:37:18.533Z,13.31
2022-12-23T09:39:45.063Z,13.38
2022-12-23T09:42:37.815Z,13.43
2022-12-23T09:45:23.215Z,13.45
2022-12-23T09:47:50.533Z,13.43
2022-12-23T09:50:31.273Z,13.43
2022-12-23T09:53:04.574Z,13.50
2022-12-23T09:56:01.040Z,13.53
2022-12-23T09:58:32.241Z,13.56
2022-12-23T10:01:16.306Z,13.58
2022-12-23T10:03:58.054Z,13.65
2022-12-23T10:06:27.707Z,13.69
2022-12-23T10:08:59.006Z,13.72
2022-12-23T10:11:27.913Z,13.75
2022-12-23T10:13:56.266Z,13.81
2022-12-23T10:16:25.652Z,13.83
2022-12-23T10:18:53.763Z,13.87
2022-12-23T10:21:39.183Z,13.90
2022-12-23T10:24:15.049Z,13.96
2022-12-23T10:26:54.978Z,14.01
2022-12-23T10:29:24.725Z,14.07
2022-12-23T10:32:28.697Z,14.15
2022-12-23T10:35:13.171Z,14.23
2022-12-23T10:37:53.326Z,14.31
2022-12-23T10:40:23.163Z,14.40
2022-12-23T10:43:17.740Z,14.52
2022-12-23T10:45:57.228Z,14.64
2022-12-23T10:48:42.178Z,14.72
2022-12-23T10:51:16.583Z,14.78
2022-12-23T10:53:53.089Z,14.84
2022-12-23T10:56:22.436Z,14.83
2022-12-23T10:58:56.078Z,14.84
2022-12-23T11:01:26.981Z,14.81
2022-12-23T11:04:11.674Z,14.89
2022-12-23T11:06:43.940Z,15.00
2022-12-23T11:09:22.936Z,15.11
2022-12-23T11:11:58.545Z,15.18
2022-12-23T11:14:38.431Z,15.18
2022-12-23T11:17:07.037Z,15.18
2022-12-23T11:19:33.524Z,15.16
2022-12-23T11:22:01.149Z,15.17
2022-12-23T11:24:35.448Z,15.17
2022-12-23T11:27:07.047Z,15.21
2022-12-23T11:29:36.334Z,15.26
2022-12-23T11:32:14.087Z,15.29
2022-12-23T11:34:45.323Z,15.36
2022-12-23T11:37:34.437Z,15.42
2022-12-23T11:40:00.950Z,15.47
2022-12-23T11:42:29.632Z,15.55
2022-12-23T11:44:59.148Z,15.56
2022-12-23T11:47:29.341Z,15.55
2022-12-23T11:49:59.077Z,15.54
2022-12-23T11:52:28.987Z,15.52
2022-12-23T11:55:00.594Z,15.52
2022-12-23T11:57:42.817Z,15.53
2022-12-23T12:00:20.995Z,15.54
2022-12-23T12:02:49.415Z,15.58
2022-12-23T12:05:33.990Z,15.60
2022-12-23T12:08:02.817Z,15.60
2022-12-23T12:10:33.701Z,15.60
2022-12-23T12:13:06.361Z,15.63
2022-12-23T12:15:58.740Z,15.67
2022-12-23T12:18:26.808Z,15.68
2022-12-23T12:20:57.013Z,15.66
2022-12-23T12:24:08.243Z,15.66
2022-12-23T12:26:38.058Z,15.62
2022-12-23T12:29:15.882Z,15.62
2022-12-23T12:31:51.294Z,15.66
2022-12-23T12:34:41.056Z,15.69
2022-12-23T12:37:31.495Z,15.71
2022-12-23T12:40:18.558Z,15.72
2022-12-23T12:42:52.358Z,15.70
2022-12-23T12:45:40.828Z,15.67
2022-12-23T12:48:27.038Z,15.60
2022-12-23T12:51:05.588Z,15.58
2022-12-23T12:53:32.969Z,15.57
2022-12-23T12:56:08.488Z,15.60
2022-12-23T12:58:34.953Z,15.63
2022-12-23T13:01:12.886Z,15.66
2022-12-23T13:03:58.056Z,15.67
2022-12-23T13:06:53.942Z,15.71
2022-12-23T13:09:30.497Z,15.72
2022-12-23T13:12:15.704Z,15.72
2022-12-23T13:15:03.749Z,15.67
2022-12-23T13:17:42.696Z,15.60
2022-12-23T13:20:20.207Z,15.60
2022-12-23T13:22:48.463Z,15.63
2022-12-23T13:25:16.870Z,15.69
2022-12-23T13:28:37.084Z,15.68
2022-12-23T13:31:31.432Z,15.70
2022-12-23T13:34:06.643Z,15.71
2022-12-23T13:36:39.177Z,15.69
2022-12-23T13:39:11.714Z,15.68
2022-12-23T13:41:50.660Z,15.70
2022-12-23T13:44:18.894Z,15.67
2022-12-23T13:47:03.668Z,15.65
2022-12-23T13:49:59.978Z,15.67
2022-12-23T13:53:01.732Z,15.69
2022-12-23T13:55:52.972Z,15.63
2022-12-23T13:58:22.199Z,15.58
2022-12-23T14:01:08.063Z,15.54
2022-12-23T14:03:36.890Z,15.52
2022-12-23T14:06:43.111Z,15.53
2022-12-23T14:09:14.742Z,15.55
2022-12-23T14:11:43.134Z,15.56
2022-12-23T14:14:19.293Z,15.58
2022-12-23T14:17:04.200Z,15.58
2022-12-23T14:19:49.567Z,15.58
2022-12-23T14:22:43.121Z,15.56
2022-12-23T14:25:37.460Z,15.57
2022-12-23T14:28:10.073Z,15.57
2022-12-23T14:30:40.377Z,15.56
2022-12-23T14:33:18.753Z,15.53
2022-12-23T14:35:45.255Z,15.49
2022-12-23T14:38:14.372Z,15.46
2022-12-23T14:40:44.169Z,15.45
2022-12-23T14:43:23.329Z,15.46
2022-12-23T14:45:55.216Z,15.47
2022-12-23T14:48:34.253Z,15.51
2022-12-23T14:51:22.545Z,15.54
2022-12-23T14:53:58.143Z,15.56
2022-12-23T14:56:40.287Z,15.57
2022-12-23T14:59:31.991Z,15.60
2022-12-23T15:01:59.999Z,15.60
2022-12-23T15:04:28.583Z,15.60
2022-12-23T15:06:59.374Z,15.58
2022-12-23T15:09:28.747Z,15.55
2022-12-23T15:11:56.713Z,15.57
2022-12-23T15:14:30.856Z,15.59
2022-12-23T15:16:57.548Z,15.60
2022-12-23T15:19:26.296Z,15.61
2022-12-23T15:22:18.004Z,15.63
2022-12-23T15:24:49.137Z,15.61
2022-12-23T15:27:29.453Z,15.61
2022-12-23T15:29:57.618Z,15.60
2022-12-23T15:32:25.320Z,15.60
2022-12-23T15:34:53.285Z,15.59
2022-12-23T15:37:27.995Z,15.56
2022-12-23T15:40:04.465Z,15.52
2022-12-23T15:42:38.447Z,15.50
2022-12-23T15:45:24.305Z,15.48
2022-12-23T15:47:50.916Z,15.45
2022-12-23T15:50:18.621Z,15.43
2022-12-23T15:52:47.683Z,15.40
2022-12-23T15:55:21.189Z,15.37
2022-12-23T15:57:50.574Z,15.36
2022-12-23T16:00:24.107Z,15.33
2022-12-23T16:03:01.531Z,15.30
2022-12-23T16:05:35.769Z,15.28
2022-12-23T16:08:30.455Z,15.27
2022-12-23T16:11:06.682Z,15.25
2022-12-23T16:13:33.956Z,15.24
2022-12-23T16:16:19.217Z,15.25
2022-12-23T16:18:47.870Z,15.27
2022-12-23T16:21:15.337Z,15.25
2022-12-23T16:23:49.309Z,15.25
2022-12-23T16:26:15.897Z,15.28
2022-12-23T16:28:46.713Z,15.29
2022-12-23T16:31:17.554Z,15.31
2022-12-23T16:34:04.978Z,15.29
2022-12-23T16:36:33.211Z,15.26
2022-12-23T16:39:08.923Z,15.20
2022-12-23T16:41:35.905Z,15.16
2022-12-23T16:44:02.707Z,15.14
2022-12-23T16:46:34.160Z,15.15
2022-12-23T16:49:04.766Z,15.13
2022-12-23T16:51:34.105Z,15.13
2022-12-23T16:54:01.226Z,15.14
2022-12-23T16:56:30.043Z,15.14
2022-12-23T16:58:56.682Z,15.09
2022-12-23T17:01:27.414Z,15.04
2022-12-23T17:03:55.793Z,15.03
2022-12-23T17:06:22.747Z,15.04
2022-12-23T17:08:49.710Z,15.01
2022-12-23T17:11:22.901Z,14.99
2022-12-23T17:13:49.931Z,14.97
2022-12-23T17:16:21.921Z,14.97
2022-12-23T17:18:49.183Z,14.96
2022-12-23T17:21:32.131Z,14.95
2022-12-23T17:24:07.658Z,14.93
2022-12-23T17:26:34.277Z,14.91
2022-12-23T17:29:02.744Z,14.93
2022-12-23T17:31:29.393Z,14.96
2022-12-23T17:33:55.911Z,14.99
2022-12-23T17:36:22.493Z,15.00
2022-12-23T17:38:49.192Z,15.01
2022-12-23T17:41:30.939Z,15.02
2022-12-23T17:43:58.100Z,15.02
2022-12-23T17:46:25.571Z,15.01
2022-12-23T17:48:52.522Z,15.02
2022-12-23T17:51:21.950Z,15.02
2022-12-23T17:53:55.194Z,15.00
2022-12-23T17:56:24.969Z,14.99
2022-12-23T17:58:51.856Z,14.96
2022-12-23T18:01:30.241Z,14.92
2022-12-23T18:03:58.334Z,14.87
2022-12-23T18:06:26.260Z,14.81
2022-12-23T18:08:52.925Z,14.77
2022-12-23T18:11:20.872Z,14.77
2022-12-23T18:13:48.416Z,14.76
2022-12-23T18:16:15.004Z,14.74
2022-12-23T18:18:46.345Z,14.73
2022-12-23T18:21:14.298Z,14.71
2022-12-23T18:23:40.926Z,14.70
2022-12-23T18:26:07.616Z,14.70
2022-12-23T18:28:34.164Z,14.68
2022-12-23T18:31:00.773Z,14.66
2022-12-23T18:33:30.273Z,14.63
2022-12-23T18:35:57.098Z,14.58
2022-12-23T18:38:23.746Z,14.53
2022-12-23T18:40:53.881Z,14.45
2022-12-23T18:43:23.441Z,14.34
2022-12-23T18:45:53.193Z,14.27
2022-12-23T18:48:21.917Z,14.24
2022-12-23T18:50:48.596Z,14.24
2022-12-23T18:53:24.550Z,14.21
2022-12-23T18:55:52.349Z,14.20
2022-12-23T18:58:19.073Z,14.21
2022-12-23T19:00:46.439Z,14.20
2022-12-23T19:03:31.646Z,14.18
2022-12-23T19:06:06.356Z,14.17
2022-12-23T19:08:34.878Z,14.21
2022-12-23T19:11:01.971Z,14.21
2022-12-23T19:13:28.457Z,14.20
2022-12-23T19:15:55.124Z,14.18
2022-12-23T19:18:22.046Z,14.17
2022-12-23T19:20:49.411Z,14.17
2022-12-23T19:23:16.667Z,14.18
2022-12-23T19:25:49.242Z,14.19
2022-12-23T19:28:21.793Z,14.21
2022-12-23T19:30:48.744Z,14.20
2022-12-23T19:33:15.478Z,14.20
2022-12-23T19:35:42.494Z,14.21
2022-12-23T19:38:09.134Z,14.21
2022-12-23T19:40:35.820Z,14.24
2022-12-23T19:43:02.917Z,14.26
2022-12-23T19:45:29.558Z,14.24
2022-12-23T19:47:56.268Z,14.28
2022-12-23T19:50:23.026Z,14.29
2022-12-23T19:52:52.143Z,14.26
2022-12-23T19:55:18.670Z,14.19
2022-12-23T19:57:45.237Z,14.11
2022-12-23T20:00:12.574Z,14.07
2022-12-23T20:02:39.172Z,14.09
2022-12-23T20:05:06.060Z,14.12
2022-12-23T20:07:32.723Z,14.17
2022-12-23T20:09:59.450Z,14.19
2022-12-23T20:12:29.970Z,14.21
2022-12-23T20:14:56.490Z,14.26
2022-12-23T20:17:23.097Z,14.27
2022-12-23T20:19:49.646Z,14.23
2022-12-23T20:22:16.235Z,14.22
2022-12-23T20:24:42.729Z,14.21
2022-12-23T20:27:11.725Z,14.24
2022-12-23T20:29:39.143Z,14.27
2022-12-23T20:32:06.370Z,14.30
2022-12-23T20:34:38.773Z,14.32
2022-12-23T20:37:06.500Z,14.31
2022-12-23T20:39:33.288Z,14.29
2022-12-23T20:41:59.855Z,14.32
2022-12-23T20:44:35.525Z,14.33
2022-12-23T20:47:07.702Z,14.33
2022-12-23T20:49:34.395Z,14.32
2022-12-23T20:52:01.144Z,14.33
2022-12-23T20:54:32.748Z,14.34
2022-12-23T20:57:00.744Z,14.38
2022-12-23T20:59:27.289Z,14.37
2022-12-23T21:01:53.894Z,14.32
2022-12-23T21:04:20.599Z,14.28
2022-12-23T21:06:47.871Z,14.26
2022-12-23T21:09:15.618Z,14.23
2022-12-23T21:11:44.187Z,14.20
2022-12-23T21:14:11.801Z,14.21
2022-12-23T21:16:39.017Z,14.24
2022-12-23T21:19:08.059Z,14.27
2022-12-23T21:21:35.100Z,14.27
2022-12-23T21:24:04.592Z,14.28
2022-12-23T21:26:32.559Z,14.26
2022-12-23T21:29:00.272Z,14.22
2022-12-23T21:31:28.615Z,14.19
2022-12-23T21:33:55.877Z,14.19
2022-12-23T21:36:24.819Z,14.19
2022-12-23T21:38:51.959Z,14.18
2022-12-23T21:41:21.505Z,14.17
2022-12-23T21:43:48.705Z,14.13
2022-12-23T21:46:17.263Z,14.11
2022-12-23T21:48:44.464Z,14.08
2022-12-23T21:51:21.514Z,14.08
2022-12-23T21:53:50.741Z,14.07
2022-12-23T21:56:22.607Z,14.07
2022-12-23T21:58:49.062Z,14.06
2022-12-23T22:01:18.551Z,14.05
2022-12-23T22:03:46.835Z,14.07
2022-12-23T22:06:18.867Z,14.11
2022-12-23T22:08:45.893Z,14.17
2022-12-23T22:11:15.681Z,14.24
2022-12-23T22:13:42.494Z,14.29
2022-12-23T22:16:10.921Z,14.35
2022-12-23T22:18:37.923Z,14.40
2022-12-23T22:21:10.089Z,14.40
2022-12-23T22:23:37.924Z,14.43
2022-12-23T22:26:05.725Z,14.43
2022-12-23T22:28:33.999Z,14.43
2022-12-23T22:31:04.835Z,14.41
2022-12-23T22:33:32.687Z,14.43
2022-12-23T22:35:59.646Z,14.41
2022-12-23T22:38:26.752Z,14.39
2022-12-23T22:40:53.597Z,14.29
2022-12-23T22:43:20.443Z,14.20
2022-12-23T22:45:47.131Z,14.16
2022-12-23T22:48:13.832Z,14.16
2022-12-23T22:50:40.352Z,14.18
2022-12-23T22:53:06.876Z,14.18
2022-12-23T22:55:33.367Z,14.18
2022-12-23T22:58:01.036Z,14.18
2022-12-23T23:00:27.562Z,14.17
2022-12-23T23:02:54.118Z,14.14
2022-12-23T23:05:20.877Z,14.13
2022-12-23T23:07:47.545Z,14.10
2022-12-23T23:10:14.967Z,14.07
2022-12-23T23:12:41.761Z,14.06
2022-12-23T23:15:08.822Z,14.05
2022-12-23T23:17:35.396Z,14.05
2022-12-23T23:20:02.219Z,14.09
2022-12-23T23:22:28.841Z,14.12
2022-12-23T23:24:55.318Z,14.15
2022-12-23T23:27:21.924Z,14.18
2022-12-23T23:29:48.564Z,14.21
2022-12-23T23:32:15.226Z,14.26
2022-12-23T23:34:42.258Z,14.27
2022-12-23T23:37:08.889Z,14.29
2022-12-23T23:39:35.353Z,14.29
2022-12-23T23:42:01.914Z,14.32
2022-12-23T23:44:28.529Z,14.34
2022-12-23T23:46:55.101Z,14.37
2022-12-23T23:49:22.749Z,14.37
2022-12-23T23:51:50.120Z,14.37
2022-12-23T23:54:16.986Z,14.38
2022-12-23T23:56:43.556Z,14.40
2022-12-23T23:59:10.078Z,14.41
